createdAt,value
2022-11-10T00:02:29.834Z,14.74
2022-11-10T00:05:05.278Z,14.73
2022-11-10T00:07:38.873Z,14.87
2022-11-10T00:10:12.402Z,14.85
2022-11-10T00:12:45.752Z,14.95
2022-11-10T00:15:36.900Z,14.85
2022-11-10T00:18:10.632Z,15.08
2022-11-10T00:20:45.768Z,14.86
2022-11-10T00:23:19.143Z,15.03
2022-11-10T00:25:52.770Z,15.18
2022-11-10T00:28:26.198Z,15.23
2022-11-10T00:31:00.170Z,15.24
2022-11-10T00:33:36.128Z,15.19
2022-11-10T00:36:10.925Z,15.14
2022-11-10T00:38:44.559Z,15.14
2022-11-10T00:41:18.126Z,15.17
2022-11-10T00:43:52.035Z,15.01
2022-11-10T00:46:25.703Z,15.06
2022-11-10T00:48:59.690Z,15.21
2022-11-10T00:51:34.926Z,14.99
2022-11-10T00:54:07.951Z,15.38
2022-11-10T00:56:40.808Z,15.25
2022-11-10T00:59:13.686Z,14.82
2022-11-10T01:01:47.261Z,15.27
2022-11-10T01:04:21.148Z,15.26
2022-11-10T01:06:55.628Z,15.20
2022-11-10T01:09:29.434Z,15.38
2022-11-10T01:12:03.135Z,15.15
2022-11-10T01:14:36.913Z,15.34
2022-11-10T01:17:10.683Z,15.18
2022-11-10T01:19:44.820Z,15.45
2022-11-10T01:22:19.827Z,15.29
2022-11-10T01:24:53.575Z,15.36
2022-11-10T01:27:27.517Z,15.10
2022-11-10T01:30:01.324Z,15.31
2022-11-10T01:32:34.942Z,15.56
2022-11-10T01:35:09.837Z,15.48
2022-11-10T01:37:45.690Z,15.70
2022-11-10T01:40:19.578Z,15.60
2022-11-10T01:42:55.721Z,15.62
2022-11-10T01:45:46.727Z,15.38
2022-11-10T01:48:27.931Z,15.61
2022-11-10T01:51:05.882Z,15.54
2022-11-10T01:53:43.536Z,15.57
2022-11-10T01:56:18.148Z,15.40
2022-11-10T01:58:55.220Z,15.52
2022-11-10T02:01:29.100Z,15.52
2022-11-10T02:04:05.581Z,15.52
2022-11-10T02:06:45.024Z,15.76
2022-11-10T02:09:20.898Z,15.86
2022-11-10T02:11:57.257Z,15.62
2022-11-10T02:14:31.478Z,15.81
2022-11-10T02:17:05.143Z,15.64
2022-11-10T02:19:43.178Z,15.76
2022-11-10T02:22:18.502Z,15.56
2022-11-10T02:24:52.296Z,15.48
2022-11-10T02:27:26.176Z,15.67
2022-11-10T02:30:00.166Z,15.79
2022-11-10T02:32:34.054Z,15.46
2022-11-10T02:35:08.371Z,15.65
2022-11-10T02:37:43.688Z,15.91
2022-11-10T02:40:17.967Z,15.59
2022-11-10T02:42:51.624Z,15.33
2022-11-10T02:45:26.192Z,15.38
2022-11-10T02:47:59.943Z,15.70
2022-11-10T02:50:33.546Z,15.77
2022-11-10T02:53:09.292Z,15.86
2022-11-10T02:55:43.459Z,15.94
2022-11-10T02:58:17.360Z,15.84
2022-11-10T03:00:50.990Z,15.72
2022-11-10T03:03:24.985Z,16.06
2022-11-10T03:05:58.869Z,15.92
2022-11-10T03:08:34.015Z,15.87
2022-11-10T03:11:07.930Z,15.17
2022-11-10T03:14:00.183Z,15.60
2022-11-10T03:16:33.539Z,15.99
2022-11-10T03:19:07.342Z,15.65
2022-11-10T03:21:40.969Z,15.76
2022-11-10T03:24:16.187Z,15.83
2022-11-10T03:26:49.017Z,15.81
2022-11-10T03:29:22.762Z,15.75
2022-11-10T03:31:56.369Z,15.79
2022-11-10T03:34:31.941Z,15.59
2022-11-10T03:37:05.615Z,15.89
2022-11-10T03:39:41.517Z,15.88
2022-11-10T03:42:15.241Z,16.08
2022-11-10T03:44:48.982Z,15.82
2022-11-10T03:47:22.566Z,15.98
2022-11-10T03:49:56.572Z,15.84
2022-11-10T03:52:29.428Z,15.85
2022-11-10T03:55:04.608Z,15.67
2022-11-10T03:57:38.198Z,15.70
2022-11-10T04:00:14.484Z,15.85
2022-11-10T04:02:48.123Z,16.02
2022-11-10T04:05:39.021Z,15.86
2022-11-10T04:08:32.416Z,16.05
2022-11-10T04:11:08.000Z,15.90
2022-11-10T04:13:58.378Z,15.70
2022-11-10T04:16:32.042Z,15.92
2022-11-10T04:19:05.681Z,16.17
2022-11-10T04:21:39.421Z,16.15
2022-11-10T04:24:13.213Z,16.08
2022-11-10T04:26:48.858Z,15.99
2022-11-10T04:29:22.501Z,15.96
2022-11-10T04:31:56.115Z,16.19
2022-11-10T04:34:29.802Z,16.15
2022-11-10T04:37:03.525Z,16.28
2022-11-10T04:39:37.222Z,16.36
2022-11-10T04:42:12.402Z,16.26
2022-11-10T04:44:46.055Z,16.31
2022-11-10T04:47:19.065Z,16.15
2022-11-10T04:49:52.629Z,16.65
2022-11-10T04:52:26.486Z,16.45
2022-11-10T04:55:00.038Z,16.57
2022-11-10T04:57:35.386Z,16.31
2022-11-10T05:00:10.966Z,16.46
2022-11-10T05:02:44.760Z,16.30
2022-11-10T05:05:18.674Z,16.42
2022-11-10T05:07:52.457Z,16.50
2022-11-10T05:10:26.351Z,16.53
2022-11-10T05:13:01.567Z,16.63
2022-11-10T05:15:35.519Z,16.28
2022-11-10T05:18:09.506Z,16.25
2022-11-10T05:20:42.832Z,16.47
2022-11-10T05:23:33.695Z,16.60
2022-11-10T05:26:08.862Z,16.48
2022-11-10T05:28:45.623Z,16.48
2022-11-10T05:31:19.166Z,16.63
2022-11-10T05:33:52.904Z,16.61
2022-11-10T05:36:26.517Z,16.70
2022-11-10T05:39:00.228Z,16.80
2022-11-10T05:41:33.935Z,16.59
2022-11-10T05:44:09.300Z,16.80
2022-11-10T05:46:42.936Z,16.74
2022-11-10T05:49:16.765Z,16.69
2022-11-10T05:51:50.514Z,16.64
2022-11-10T05:54:24.250Z,16.69
2022-11-10T05:56:58.004Z,16.61
2022-11-10T05:59:33.238Z,16.72
2022-11-10T06:02:06.853Z,16.81
2022-11-10T06:04:40.578Z,16.73
2022-11-10T06:07:14.247Z,16.80
2022-11-10T06:09:48.825Z,16.38
2022-11-10T06:12:22.490Z,16.79
2022-11-10T06:14:58.436Z,16.80
2022-11-10T06:17:32.010Z,16.93
2022-11-10T06:20:06.413Z,16.86
2022-11-10T06:22:40.236Z,16.73
2022-11-10T06:25:14.181Z,16.92
2022-11-10T06:27:47.736Z,16.86
2022-11-10T06:30:23.666Z,16.81
2022-11-10T06:32:56.866Z,16.88
2022-11-10T06:35:31.150Z,16.75
2022-11-10T06:38:06.736Z,16.81
2022-11-10T06:40:40.429Z,16.85
2022-11-10T06:43:14.056Z,16.64
2022-11-10T06:45:49.230Z,16.76
2022-11-10T06:48:22.869Z,16.68
2022-11-10T06:50:56.578Z,16.80
2022-11-10T06:53:30.297Z,16.81
2022-11-10T06:56:04.231Z,16.97
2022-11-10T06:58:37.920Z,16.84
2022-11-10T07:01:13.051Z,16.68
2022-11-10T07:04:13.053Z,16.63
2022-11-10T07:06:40.112Z,16.65
2022-11-10T07:09:13.868Z,16.46
2022-11-10T07:11:47.797Z,16.52
2022-11-10T07:14:21.463Z,16.64
2022-11-10T07:16:56.788Z,16.61
2022-11-10T07:19:32.718Z,16.64
2022-11-10T07:22:10.621Z,16.65
2022-11-10T07:24:44.924Z,16.62
2022-11-10T07:27:18.661Z,16.61
2022-11-10T07:29:53.298Z,16.48
2022-11-10T07:32:28.920Z,16.49
2022-11-10T07:35:02.327Z,16.63
2022-11-10T07:37:36.115Z,16.46
2022-11-10T07:40:10.750Z,16.69
2022-11-10T07:42:44.470Z,16.44
2022-11-10T07:45:18.986Z,16.58
2022-11-10T07:47:54.030Z,16.12
2022-11-10T07:50:27.813Z,16.55
2022-11-10T07:53:06.378Z,16.43
2022-11-10T07:55:41.275Z,16.61
2022-11-10T07:58:17.467Z,16.48
2022-11-10T08:00:50.963Z,16.49
2022-11-10T08:03:26.345Z,16.60
2022-11-10T08:06:00.014Z,16.68
2022-11-10T08:08:33.788Z,16.59
2022-11-10T08:11:07.675Z,16.74
2022-11-10T08:13:40.531Z,16.58
2022-11-10T08:16:14.091Z,16.62
2022-11-10T08:18:49.376Z,16.79
2022-11-10T08:21:23.324Z,16.90
2022-11-10T08:23:56.741Z,16.70
2022-11-10T08:26:29.873Z,16.65
2022-11-10T08:29:02.742Z,16.75
2022-11-10T08:31:35.678Z,16.99
2022-11-10T08:34:10.939Z,17.10
2022-11-10T08:36:44.391Z,17.02
2022-11-10T08:39:37.627Z,17.12
2022-11-10T08:42:11.449Z,17.21
2022-11-10T08:44:45.152Z,17.07
2022-11-10T08:47:18.747Z,17.06
2022-11-10T08:49:53.922Z,17.44
2022-11-10T08:52:27.540Z,17.36
2022-11-10T08:55:01.277Z,17.35
2022-11-10T08:57:34.836Z,17.08
2022-11-10T09:00:09.357Z,17.40
2022-11-10T09:02:42.271Z,17.30
2022-11-10T09:05:16.779Z,17.44
2022-11-10T09:07:51.044Z,17.63
2022-11-10T09:10:23.968Z,17.47
2022-11-10T09:13:01.093Z,17.37
2022-11-10T09:15:35.711Z,17.60
2022-11-10T09:18:10.170Z,17.58
2022-11-10T09:20:44.781Z,17.60
2022-11-10T09:23:19.781Z,17.50
2022-11-10T09:25:54.959Z,17.78
2022-11-10T09:28:28.141Z,17.61
2022-11-10T09:31:01.418Z,17.77
2022-11-10T09:33:34.853Z,17.57
2022-11-10T09:36:10.499Z,17.61
2022-11-10T09:38:44.057Z,17.83
2022-11-10T09:41:17.990Z,17.47
2022-11-10T09:44:03.572Z,17.66
2022-11-10T09:46:41.603Z,17.77
2022-11-10T09:49:31.572Z,17.66
2022-11-10T09:52:08.585Z,17.85
2022-11-10T09:54:45.651Z,17.97
2022-11-10T09:57:23.357Z,17.80
2022-11-10T09:59:56.984Z,17.98
2022-11-10T10:02:35.067Z,17.92
2022-11-10T10:05:33.566Z,17.82
2022-11-10T10:08:10.007Z,17.91
2022-11-10T10:10:46.315Z,17.57
2022-11-10T10:13:33.376Z,17.97
2022-11-10T10:16:16.608Z,17.83
2022-11-10T10:18:58.078Z,17.80
2022-11-10T10:21:41.910Z,18.23
2022-11-10T10:24:22.145Z,17.67
2022-11-10T10:26:58.527Z,18.02
2022-11-10T10:29:37.634Z,18.03
2022-11-10T10:32:13.820Z,18.12
2022-11-10T10:34:48.003Z,17.91
2022-11-10T10:37:25.105Z,18.09
2022-11-10T10:39:59.540Z,17.46
2022-11-10T10:42:35.111Z,18.07
2022-11-10T10:45:21.188Z,17.93
2022-11-10T10:47:56.456Z,18.02
2022-11-10T10:50:33.549Z,17.94
2022-11-10T10:53:15.006Z,17.63
2022-11-10T10:55:59.888Z,17.85
2022-11-10T10:58:36.118Z,17.36
2022-11-10T11:01:26.067Z,17.81
2022-11-10T11:04:00.818Z,17.41
2022-11-10T11:06:35.388Z,17.50
2022-11-10T11:09:10.211Z,17.42
2022-11-10T11:11:46.255Z,17.59
2022-11-10T11:14:23.535Z,17.87
2022-11-10T11:16:58.350Z,18.11
2022-11-10T11:19:34.010Z,18.13
2022-11-10T11:22:34.154Z,17.65
2022-11-10T11:25:18.030Z,17.84
2022-11-10T11:28:03.726Z,17.48
2022-11-10T11:30:50.557Z,17.52
2022-11-10T11:33:33.987Z,17.67
2022-11-10T11:36:18.814Z,17.99
2022-11-10T11:39:03.650Z,18.30
2022-11-10T11:41:46.054Z,18.08
2022-11-10T11:44:42.463Z,17.97
2022-11-10T11:47:28.550Z,18.32
2022-11-10T11:50:15.900Z,18.74
2022-11-10T11:52:58.895Z,18.78
2022-11-10T11:55:44.694Z,18.70
2022-11-10T11:58:45.389Z,18.32
2022-11-10T12:01:35.290Z,18.19
2022-11-10T12:04:46.162Z,18.32
2022-11-10T12:07:33.442Z,18.24
2022-11-10T12:10:20.073Z,17.99
2022-11-10T12:13:22.814Z,18.10
2022-11-10T12:16:02.977Z,17.93
2022-11-10T12:18:49.365Z,17.81
2022-11-10T12:21:30.868Z,17.93
2022-11-10T12:24:24.479Z,17.86
2022-11-10T12:27:00.708Z,17.75
2022-11-10T12:29:38.666Z,17.54
2022-11-10T12:32:18.307Z,17.59
2022-11-10T12:34:58.235Z,17.82
2022-11-10T12:37:44.139Z,17.82
2022-11-10T12:40:18.931Z,17.84
2022-11-10T12:43:00.256Z,18.00
2022-11-10T12:45:40.456Z,17.97
2022-11-10T12:48:16.168Z,18.25
2022-11-10T12:50:56.779Z,18.13
2022-11-10T12:53:32.460Z,18.18
2022-11-10T12:56:14.928Z,18.21
2022-11-10T12:58:47.905Z,18.32
2022-11-10T13:01:22.087Z,18.25
2022-11-10T13:03:57.076Z,18.40
2022-11-10T13:06:35.863Z,18.38
2022-11-10T13:09:27.179Z,18.51
2022-11-10T13:12:16.860Z,18.09
2022-11-10T13:14:50.339Z,18.40
2022-11-10T13:17:55.090Z,18.47
2022-11-10T13:20:48.683Z,18.66
2022-11-10T13:23:28.730Z,18.61
2022-11-10T13:26:03.390Z,18.12
2022-11-10T13:29:02.776Z,18.18
2022-11-10T13:31:57.659Z,18.65
2022-11-10T13:34:35.902Z,18.18
2022-11-10T13:37:42.616Z,18.56
2022-11-10T13:40:35.910Z,18.50
2022-11-10T13:43:21.184Z,18.57
2022-11-10T13:46:07.130Z,18.39
2022-11-10T13:48:50.456Z,18.33
2022-11-10T13:51:37.175Z,18.24
2022-11-10T13:54:25.125Z,18.52
2022-11-10T13:57:22.763Z,18.39
2022-11-10T13:59:59.384Z,18.32
2022-11-10T14:03:01.059Z,18.20
2022-11-10T14:06:03.652Z,18.34
2022-11-10T14:08:48.570Z,17.98
2022-11-10T14:11:28.383Z,18.27
2022-11-10T14:14:12.171Z,18.10
2022-11-10T14:16:45.440Z,18.28
2022-11-10T14:19:26.821Z,18.09
2022-11-10T14:22:04.488Z,18.10
2022-11-10T14:24:43.988Z,17.85
2022-11-10T14:27:24.611Z,18.11
2022-11-10T14:30:25.045Z,17.94
2022-11-10T14:33:01.086Z,18.05
2022-11-10T14:35:45.730Z,18.18
2022-11-10T14:38:21.973Z,18.02
2022-11-10T14:40:57.437Z,18.00
2022-11-10T14:43:32.782Z,17.85
2022-11-10T14:46:08.555Z,18.06
2022-11-10T14:48:41.506Z,17.81
2022-11-10T14:51:18.185Z,17.83
2022-11-10T14:53:54.259Z,18.05
2022-11-10T14:56:31.140Z,18.05
2022-11-10T14:59:06.747Z,17.75
2022-11-10T15:01:49.748Z,17.41
2022-11-10T15:04:28.131Z,17.98
2022-11-10T15:07:01.895Z,17.96
2022-11-10T15:09:35.705Z,17.73
2022-11-10T15:12:21.421Z,17.64
2022-11-10T15:15:00.106Z,17.92
2022-11-10T15:17:50.443Z,17.84
2022-11-10T15:20:35.812Z,17.64
2022-11-10T15:23:23.098Z,17.80
2022-11-10T15:25:56.341Z,17.87
2022-11-10T15:28:33.899Z,17.88
2022-11-10T15:31:11.679Z,17.47
2022-11-10T15:33:49.966Z,17.83
2022-11-10T15:36:33.202Z,18.15
2022-11-10T15:39:16.139Z,17.99
2022-11-10T15:41:50.945Z,18.01
2022-11-10T15:44:25.873Z,18.00
2022-11-10T15:47:00.164Z,18.18
2022-11-10T15:49:38.216Z,17.67
2022-11-10T15:52:17.320Z,17.75
2022-11-10T15:54:51.818Z,17.92
2022-11-10T15:57:24.728Z,18.08
2022-11-10T15:59:57.679Z,17.84
2022-11-10T16:02:31.680Z,17.81
2022-11-10T16:05:12.274Z,17.79
2022-11-10T16:07:45.117Z,17.66
2022-11-10T16:10:18.068Z,17.83
2022-11-10T16:12:51.034Z,17.63
2022-11-10T16:15:23.997Z,17.78
2022-11-10T16:17:57.021Z,17.07
2022-11-10T16:20:31.433Z,17.35
2022-11-10T16:23:04.338Z,17.39
2022-11-10T16:25:37.467Z,17.47
2022-11-10T16:28:12.112Z,17.64
2022-11-10T16:30:45.893Z,17.73
2022-11-10T16:33:21.894Z,17.56
2022-11-10T16:35:57.202Z,17.43
2022-11-10T16:38:31.587Z,17.63
2022-11-10T16:41:05.791Z,17.85
2022-11-10T16:43:38.695Z,17.65
2022-11-10T16:46:19.704Z,17.64
2022-11-10T16:48:56.647Z,17.41
2022-11-10T16:51:35.037Z,17.61
2022-11-10T16:54:10.062Z,17.46
2022-11-10T16:56:43.042Z,17.46
2022-11-10T16:59:17.386Z,17.67
2022-11-10T17:01:52.146Z,17.38
2022-11-10T17:04:25.785Z,17.34
2022-11-10T17:07:00.930Z,17.47
2022-11-10T17:09:34.735Z,17.62
2022-11-10T17:12:08.121Z,17.57
2022-11-10T17:14:42.816Z,17.21
2022-11-10T17:17:19.994Z,17.65
2022-11-10T17:19:53.857Z,17.56
2022-11-10T17:22:35.049Z,17.63
2022-11-10T17:25:16.718Z,17.34
2022-11-10T17:27:50.481Z,17.22
2022-11-10T17:30:23.954Z,17.28
2022-11-10T17:33:06.686Z,17.36
2022-11-10T17:35:45.995Z,17.18
2022-11-10T17:38:25.465Z,16.95
2022-11-10T17:40:58.567Z,17.08
2022-11-10T17:43:31.390Z,17.00
2022-11-10T17:46:05.009Z,17.14
2022-11-10T17:48:38.813Z,17.33
2022-11-10T17:51:14.837Z,17.13
2022-11-10T17:53:50.939Z,17.25
2022-11-10T17:56:23.753Z,16.87
2022-11-10T17:58:57.826Z,17.20
2022-11-10T18:01:31.350Z,17.44
2022-11-10T18:04:05.363Z,17.19
2022-11-10T18:06:38.359Z,17.56
2022-11-10T18:09:12.570Z,17.13
2022-11-10T18:11:46.160Z,17.35
2022-11-10T18:14:19.110Z,17.26
2022-11-10T18:16:52.859Z,17.42
2022-11-10T18:19:25.735Z,17.22
2022-11-10T18:21:58.521Z,17.61
2022-11-10T18:24:32.752Z,17.09
2022-11-10T18:27:06.204Z,17.02
2022-11-10T18:29:39.054Z,17.57
2022-11-10T18:32:11.864Z,17.02
2022-11-10T18:34:45.607Z,17.18
2022-11-10T18:37:20.258Z,17.20
2022-11-10T18:39:55.163Z,16.84
2022-11-10T18:42:28.949Z,17.18
2022-11-10T18:45:02.720Z,17.37
2022-11-10T18:47:36.381Z,17.20
2022-11-10T18:50:10.877Z,17.20
2022-11-10T18:52:44.517Z,17.06
2022-11-10T18:55:20.794Z,17.22
2022-11-10T18:57:54.242Z,17.23
2022-11-10T19:00:28.019Z,16.98
2022-11-10T19:03:01.662Z,17.00
2022-11-10T19:05:35.454Z,17.06
2022-11-10T19:08:09.225Z,17.12
2022-11-10T19:10:45.321Z,17.10
2022-11-10T19:13:19.058Z,16.82
2022-11-10T19:15:53.697Z,17.11
2022-11-10T19:18:27.566Z,17.00
2022-11-10T19:21:06.285Z,16.83
2022-11-10T19:23:39.214Z,16.93
2022-11-10T19:26:21.861Z,16.74
2022-11-10T19:28:56.512Z,17.06
2022-11-10T19:31:30.259Z,16.84
2022-11-10T19:34:03.819Z,16.71
2022-11-10T19:36:37.572Z,16.89
2022-11-10T19:39:11.562Z,16.76
2022-11-10T19:41:46.743Z,16.84
2022-11-10T19:44:20.621Z,16.94
2022-11-10T19:46:54.535Z,16.81
2022-11-10T19:49:28.374Z,16.97
2022-11-10T19:52:01.748Z,17.06
2022-11-10T19:54:35.605Z,16.71
2022-11-10T19:57:10.918Z,16.80
2022-11-10T19:59:44.493Z,17.11
2022-11-10T20:02:17.383Z,17.22
2022-11-10T20:05:08.038Z,17.00
2022-11-10T20:07:58.832Z,16.77
2022-11-10T20:10:32.604Z,16.90
2022-11-10T20:13:08.181Z,16.74
2022-11-10T20:15:42.718Z,16.96
2022-11-10T20:18:16.646Z,17.01
2022-11-10T20:20:50.429Z,17.12
2022-11-10T20:23:24.682Z,17.00
2022-11-10T20:26:06.050Z,17.06
2022-11-10T20:28:41.731Z,17.06
2022-11-10T20:31:20.440Z,17.14
2022-11-10T20:33:56.523Z,17.00
2022-11-10T20:36:31.802Z,16.98
2022-11-10T20:39:05.615Z,17.00
2022-11-10T20:41:39.273Z,17.01
2022-11-10T20:44:14.707Z,16.67
2022-11-10T20:46:54.341Z,17.14
2022-11-10T20:49:28.729Z,17.16
2022-11-10T20:52:03.495Z,17.06
2022-11-10T20:54:37.167Z,17.02
2022-11-10T20:57:10.820Z,17.10
2022-11-10T20:59:46.261Z,17.07
2022-11-10T21:02:19.875Z,17.08
2022-11-10T21:04:53.599Z,17.16
2022-11-10T21:07:27.744Z,16.86
2022-11-10T21:10:01.409Z,17.14
2022-11-10T21:12:53.242Z,17.07
2022-11-10T21:15:28.544Z,16.90
2022-11-10T21:18:02.400Z,16.93
2022-11-10T21:20:36.075Z,17.01
2022-11-10T21:23:08.848Z,17.04
2022-11-10T21:25:42.674Z,17.33
2022-11-10T21:28:16.269Z,17.06
2022-11-10T21:30:50.727Z,17.10
2022-11-10T21:33:24.490Z,17.15
2022-11-10T21:35:58.407Z,17.23
2022-11-10T21:38:32.029Z,17.20
2022-11-10T21:41:06.119Z,17.11
2022-11-10T21:43:39.916Z,17.14
2022-11-10T21:46:15.231Z,17.58
2022-11-10T21:48:49.014Z,17.25
2022-11-10T21:51:22.748Z,17.22
2022-11-10T21:53:55.705Z,17.21
2022-11-10T21:56:29.571Z,17.13
2022-11-10T21:59:02.999Z,17.26
2022-11-10T22:01:38.485Z,16.95
2022-11-10T22:04:12.246Z,17.13
2022-11-10T22:07:03.341Z,17.31
2022-11-10T22:09:54.447Z,17.03
2022-11-10T22:12:45.257Z,16.70
2022-11-10T22:15:36.557Z,16.86
2022-11-10T22:18:33.283Z,16.99
2022-11-10T22:21:08.070Z,16.90
2022-11-10T22:23:58.350Z,16.82
2022-11-10T22:26:31.926Z,17.07
2022-11-10T22:29:05.645Z,16.98
2022-11-10T22:31:39.258Z,17.17
2022-11-10T22:34:14.543Z,17.12
2022-11-10T22:36:49.516Z,17.22
2022-11-10T22:39:23.470Z,17.08
2022-11-10T22:42:14.629Z,17.20
2022-11-10T22:44:48.581Z,17.17
2022-11-10T22:47:22.404Z,17.16
2022-11-10T22:49:56.890Z,16.98
2022-11-10T22:52:30.827Z,17.10
2022-11-10T22:55:04.852Z,16.94
2022-11-10T22:57:37.773Z,16.99
2022-11-10T23:00:12.646Z,17.22
2022-11-10T23:02:46.328Z,17.31
2022-11-10T23:05:20.690Z,17.07
2022-11-10T23:07:56.167Z,17.04
2022-11-10T23:10:29.444Z,17.20
2022-11-10T23:13:03.054Z,17.20
2022-11-10T23:15:36.795Z,17.42
2022-11-10T23:18:10.439Z,17.33
2022-11-10T23:20:45.734Z,17.42
2022-11-10T23:23:19.254Z,17.47
2022-11-10T23:26:00.377Z,16.97
2022-11-10T23:28:35.545Z,17.60
2022-11-10T23:31:12.517Z,17.52
2022-11-10T23:33:47.257Z,17.35
2022-11-10T23:36:24.390Z,17.43
2022-11-10T23:38:57.974Z,17.60
2022-11-10T23:41:31.787Z,17.45
2022-11-10T23:44:05.653Z,17.70
2022-11-10T23:46:39.411Z,17.65
2022-11-10T23:49:13.061Z,17.59
2022-11-10T23:51:47.375Z,17.56
2022-11-10T23:54:21.013Z,17.55
2022-11-10T23:56:55.010Z,17.29
2022-11-10T23:59:28.573Z,17.27
